This is the latest recevied weather packets stored in our database for station/object KJ5IIV. If no packets are shown the sender has not sent any weather packets the latest 10 day(s).
| Time | Temp. | Humidity | Pressure | Rain* | Wind** | Luminosity | Snow |
|---|---|---|---|---|---|---|---|
| 1777869748 | 16.67° C | 71% | 1016.6 hPa | 0 mm | - | 0 W/m² | - |
| 1777869445 | 16.67° C | 71% | 1016.5 hPa | 0 mm | - | 0 W/m² | - |
| 1777869142 | 16.11° C | 72% | 1016.5 hPa | 0 mm | - | 0 W/m² | - |
| 1777868840 | 16.67° C | 71% | 1016.5 hPa | 0 mm | - | 0 W/m² | - |
| 1777868536 | 16.67° C | 71% | 1016.4 hPa | 0 mm | - | 0 W/m² | - |
| 1777868232 | 16.67° C | 71% | 1016.6 hPa | 0 mm | - | 0 W/m² | - |
| 1777867928 | 16.67° C | 69% | 1016.6 hPa | 0 mm | - | 0 W/m² | - |
| 1777867625 | 16.67° C | 69% | 1016.5 hPa | 0 mm | - | 0 W/m² | - |
| 1777867322 | 16.67° C | 71% | 1016.6 hPa | 0 mm | - | 0 W/m² | - |
| 1777867018 | 16.67° C | 71% | 1016.4 hPa | 0 mm | - | 0 W/m² | - |
| 1777866715 | 16.67° C | 69% | 1016.4 hPa | 0 mm | - | 0 W/m² | - |
| 1777865807 | 17.22° C | 68% | 1016.7 hPa | 0 mm | - | 0 W/m² | - |
| 1777864292 | 17.78° C | 64% | 1016.5 hPa | 0 mm | - | 0 W/m² | - |
| 1777863988 | 17.78° C | 63% | 1016.6 hPa | 0 mm | - | 0 W/m² | - |
| 1777847015 | 26.11° C | 38% | 1016.7 hPa | 0 mm | - | 92 W/m² | - |
| 1777846712 | 26.67° C | 38% | 1016.6 hPa | 0 mm | - | 101 W/m² | - |
| 1777845803 | 28.33° C | 34% | 1016.7 hPa | 0 mm | - | 478 W/m² | - |
| 1777845197 | 27.78° C | 35% | 1016.7 hPa | 0 mm | - | 527 W/m² | - |
| 1777844592 | 28.89° C | 35% | 1017.1 hPa | 0 mm | - | 136 W/m² | - |
| 1777844290 | 28.89° C | 32% | 1017.1 hPa | 0 mm | - | 609 W/m² | - |
| 1777843987 | 29.44° C | 32% | 1016.9 hPa | 0 mm | - | 622 W/m² | - |
| 1777843079 | 28.89° C | 33% | 1017.5 hPa | 0 mm | - | 705 W/m² | - |
| 1777842775 | 28.33° C | 34% | 1017.6 hPa | 0 mm | - | 727 W/m² | - |
| 1777842475 | 27.78° C | 35% | 1017.8 hPa | 0 mm | - | 732 W/m² | - |
| 1777840656 | 28.33° C | 37% | 1018.1 hPa | 0 mm | - | 865 W/m² | - |
* Rain latest hour (hover to see other rain measurements)
** Current wind speed in m/s (hover to see current wind gust speed)